createdAt,value
2023-05-22T00:00:13.445Z,1.63
2023-05-22T00:02:43.623Z,2.13
2023-05-22T00:05:13.263Z,2.00
2023-05-22T00:07:43.426Z,2.87
2023-05-22T00:10:12.126Z,2.20
2023-05-22T00:12:40.204Z,2.47
2023-05-22T00:15:09.250Z,2.57
2023-05-22T00:17:37.271Z,2.80
2023-05-22T00:20:07.026Z,3.00
2023-05-22T00:22:36.092Z,2.20
2023-05-22T00:25:05.991Z,2.30
2023-05-22T00:27:34.253Z,3.17
2023-05-22T00:30:02.611Z,2.13
2023-05-22T00:32:30.875Z,2.60
2023-05-22T00:34:58.838Z,2.20
2023-05-22T00:37:26.799Z,2.00
2023-05-22T00:39:54.772Z,2.07
2023-05-22T00:42:24.357Z,2.57
2023-05-22T00:44:52.376Z,1.93
2023-05-22T00:47:21.233Z,2.90
2023-05-22T00:49:49.240Z,1.83
2023-05-22T00:52:17.789Z,2.30
2023-05-22T00:54:46.985Z,2.00
2023-05-22T00:57:15.348Z,2.40
2023-05-22T00:59:45.118Z,2.03
2023-05-22T01:02:16.413Z,2.53
2023-05-22T01:04:48.229Z,2.13
2023-05-22T01:07:17.863Z,2.97
2023-05-22T01:09:46.142Z,2.50
2023-05-22T01:12:25.529Z,2.40
2023-05-22T01:15:00.994Z,1.80
2023-05-22T01:17:38.544Z,3.70
2023-05-22T01:20:14.894Z,2.23
2023-05-22T01:23:30.416Z,1.97
2023-05-22T01:26:11.154Z,2.63
2023-05-22T01:28:55.808Z,2.40
2023-05-22T01:31:27.082Z,1.63
2023-05-22T01:33:58.334Z,1.60
2023-05-22T01:36:31.024Z,1.80
2023-05-22T01:39:01.632Z,2.27
2023-05-22T01:41:30.530Z,2.53
2023-05-22T01:43:58.938Z,3.00
2023-05-22T01:46:29.221Z,2.27
2023-05-22T01:48:57.315Z,1.87
2023-05-22T01:51:31.619Z,2.77
2023-05-22T01:54:06.154Z,2.30
2023-05-22T01:56:40.239Z,2.30
2023-05-22T01:59:14.997Z,2.60
2023-05-22T02:01:45.129Z,2.27
2023-05-22T02:04:16.263Z,2.57
2023-05-22T02:06:45.114Z,2.50
2023-05-22T02:09:14.787Z,1.50
2023-05-22T02:11:43.489Z,1.77
2023-05-22T02:14:12.486Z,2.73
2023-05-22T02:16:42.303Z,2.13
2023-05-22T02:19:11.651Z,2.27
2023-05-22T02:21:39.664Z,2.07
2023-05-22T02:24:07.838Z,1.80
2023-05-22T02:26:35.791Z,2.20
2023-05-22T02:29:03.754Z,2.53
2023-05-22T02:31:31.787Z,2.40
2023-05-22T02:33:59.836Z,1.70
2023-05-22T02:36:30.950Z,1.63
2023-05-22T02:38:58.947Z,1.80
2023-05-22T02:41:26.919Z,1.87
2023-05-22T02:43:54.910Z,2.23
2023-05-22T02:46:22.893Z,1.60
2023-05-22T02:48:50.900Z,2.40
2023-05-22T02:51:18.913Z,1.77
2023-05-22T02:53:48.241Z,1.80
2023-05-22T02:56:16.197Z,1.73
2023-05-22T02:58:44.148Z,2.13
2023-05-22T03:01:12.095Z,2.00
2023-05-22T03:03:40.168Z,1.80
2023-05-22T03:06:08.914Z,1.80
2023-05-22T03:08:38.367Z,2.53
2023-05-22T03:11:07.709Z,1.90
2023-05-22T03:13:35.668Z,1.80
2023-05-22T03:16:04.094Z,1.60
2023-05-22T03:18:32.175Z,2.03
2023-05-22T03:21:00.659Z,1.90
2023-05-22T03:23:28.623Z,1.77
2023-05-22T03:25:56.888Z,1.23
2023-05-22T03:28:26.282Z,2.67
2023-05-22T03:30:54.601Z,2.23
2023-05-22T03:33:22.657Z,1.93
2023-05-22T03:35:50.876Z,2.43
2023-05-22T03:38:18.862Z,2.80
2023-05-22T03:40:46.797Z,2.10
2023-05-22T03:43:14.807Z,1.60
2023-05-22T03:45:44.277Z,2.00
2023-05-22T03:48:12.703Z,2.60
2023-05-22T03:50:41.057Z,1.63
2023-05-22T03:53:09.380Z,1.90
2023-05-22T03:55:37.304Z,1.90
2023-05-22T03:58:05.238Z,1.63
2023-05-22T04:00:34.782Z,2.23
2023-05-22T04:03:04.304Z,2.33
2023-05-22T04:05:33.423Z,1.90
2023-05-22T04:08:01.440Z,1.80
2023-05-22T04:10:29.393Z,3.20
2023-05-22T04:12:57.341Z,2.40
2023-05-22T04:15:25.346Z,2.20
2023-05-22T04:17:54.603Z,2.10
2023-05-22T04:20:24.011Z,1.17
2023-05-22T04:22:52.134Z,1.83
2023-05-22T04:25:20.165Z,1.83
2023-05-22T04:27:48.453Z,1.90
2023-05-22T04:30:17.117Z,1.23
2023-05-22T04:32:45.608Z,2.53
2023-05-22T04:35:13.565Z,2.70
2023-05-22T04:37:45.539Z,2.20
2023-05-22T04:40:15.285Z,2.00
2023-05-22T04:42:44.579Z,1.90
2023-05-22T04:45:14.614Z,2.17
2023-05-22T04:47:42.678Z,1.83
2023-05-22T04:50:12.011Z,2.20
2023-05-22T04:52:39.964Z,1.77
2023-05-22T04:55:12.059Z,2.20
2023-05-22T04:57:40.549Z,1.77
2023-05-22T05:00:10.792Z,2.57
2023-05-22T05:02:38.814Z,1.90
2023-05-22T05:05:07.227Z,2.10
2023-05-22T05:07:38.538Z,1.80
2023-05-22T05:10:10.452Z,2.27
2023-05-22T05:12:39.774Z,1.90
2023-05-22T05:15:09.018Z,2.83
2023-05-22T05:17:37.104Z,2.40
2023-05-22T05:20:07.361Z,2.47
2023-05-22T05:22:35.955Z,2.40
2023-05-22T05:25:04.267Z,2.40
2023-05-22T05:27:32.221Z,3.20
2023-05-22T05:30:01.530Z,2.73
2023-05-22T05:32:29.504Z,3.00
2023-05-22T05:34:57.481Z,3.50
2023-05-22T05:37:26.106Z,5.03
2023-05-22T05:39:54.107Z,1.57
2023-05-22T05:42:22.079Z,2.70
2023-05-22T05:44:50.111Z,2.17
2023-05-22T05:47:19.470Z,2.60
2023-05-22T05:49:47.402Z,2.50
2023-05-22T05:52:15.317Z,3.17
2023-05-22T05:54:47.415Z,3.67
2023-05-22T05:57:16.596Z,3.60
2023-05-22T05:59:44.573Z,3.43
2023-05-22T06:02:12.776Z,4.60
2023-05-22T06:04:42.642Z,2.60
2023-05-22T06:07:10.584Z,3.40
2023-05-22T06:09:38.566Z,3.67
2023-05-22T06:12:07.393Z,3.70
2023-05-22T06:14:35.512Z,3.43
2023-05-22T06:17:03.471Z,4.07
2023-05-22T06:19:31.624Z,3.23
2023-05-22T06:22:01.102Z,3.53
2023-05-22T06:24:29.072Z,3.33
2023-05-22T06:26:57.078Z,4.07
2023-05-22T06:29:25.053Z,3.47
2023-05-22T06:31:53.402Z,4.37
2023-05-22T06:34:22.419Z,3.10
2023-05-22T06:36:51.363Z,3.67
2023-05-22T06:39:20.711Z,3.83
2023-05-22T06:41:48.736Z,2.80
2023-05-22T06:44:17.151Z,3.70
2023-05-22T06:46:45.156Z,2.93
2023-05-22T06:49:13.106Z,3.17
2023-05-22T06:51:41.056Z,3.57
2023-05-22T06:54:09.555Z,3.90
2023-05-22T06:56:38.933Z,3.80
2023-05-22T06:59:07.068Z,3.47
2023-05-22T07:01:35.167Z,2.40
2023-05-22T07:04:05.185Z,4.03
2023-05-22T07:06:38.815Z,3.90
2023-05-22T07:09:07.362Z,4.10
2023-05-22T07:11:35.665Z,4.03
2023-05-22T07:14:05.265Z,3.83
2023-05-22T07:16:33.284Z,3.33
2023-05-22T07:19:01.523Z,4.17
2023-05-22T07:21:31.841Z,4.80
2023-05-22T07:23:59.868Z,3.70
2023-05-22T07:26:28.582Z,4.17
2023-05-22T07:28:56.775Z,3.90
2023-05-22T07:31:26.160Z,3.27
2023-05-22T07:33:54.296Z,3.43
2023-05-22T07:36:23.447Z,3.90
2023-05-22T07:38:51.382Z,3.30
2023-05-22T07:41:19.403Z,4.60
2023-05-22T07:43:47.349Z,4.87
2023-05-22T07:46:15.441Z,3.67
2023-05-22T07:48:44.896Z,2.93
2023-05-22T07:51:13.586Z,4.30
2023-05-22T07:53:41.584Z,3.70
2023-05-22T07:56:09.544Z,4.10
2023-05-22T07:58:37.615Z,3.47
2023-05-22T08:01:08.027Z,4.27
2023-05-22T08:03:36.871Z,4.20
2023-05-22T08:06:06.570Z,5.20
2023-05-22T08:08:34.737Z,3.27
2023-05-22T08:11:04.540Z,5.07
2023-05-22T08:13:32.972Z,4.03
2023-05-22T08:16:01.494Z,3.20
2023-05-22T08:18:30.130Z,3.13
2023-05-22T08:21:00.136Z,4.47
2023-05-22T08:23:29.987Z,3.60
2023-05-22T08:25:58.063Z,5.47
2023-05-22T08:28:26.326Z,2.70
2023-05-22T08:30:55.184Z,3.60
2023-05-22T08:33:23.244Z,3.60
2023-05-22T08:35:51.181Z,3.60
2023-05-22T08:38:19.132Z,4.10
2023-05-22T08:40:49.650Z,5.43
2023-05-22T08:43:17.769Z,3.87
2023-05-22T08:45:45.937Z,3.70
2023-05-22T08:48:14.690Z,3.90
2023-05-22T08:50:44.020Z,3.73
2023-05-22T08:53:14.442Z,4.00
2023-05-22T08:55:42.784Z,3.20
2023-05-22T08:58:13.259Z,3.60
2023-05-22T09:00:42.033Z,3.53
2023-05-22T09:03:10.440Z,3.50
2023-05-22T09:05:39.249Z,4.40
2023-05-22T09:08:19.146Z,3.10
2023-05-22T09:10:48.797Z,3.70
2023-05-22T09:13:27.641Z,4.10
2023-05-22T09:16:00.291Z,4.20
2023-05-22T09:18:29.581Z,3.77
2023-05-22T09:20:59.116Z,3.60
2023-05-22T09:23:29.603Z,3.60
2023-05-22T09:25:58.378Z,3.80
2023-05-22T09:28:29.018Z,3.63
2023-05-22T09:30:57.130Z,3.80
2023-05-22T09:33:25.560Z,3.93
2023-05-22T09:35:54.573Z,4.47
2023-05-22T09:38:23.719Z,3.50
2023-05-22T09:40:55.317Z,3.13
2023-05-22T09:43:25.375Z,3.77
2023-05-22T09:46:01.911Z,2.73
2023-05-22T09:48:30.298Z,4.30
2023-05-22T09:51:01.842Z,3.20
2023-05-22T09:53:31.041Z,3.10
2023-05-22T09:56:00.514Z,3.20
2023-05-22T09:58:31.489Z,3.23
2023-05-22T10:01:02.106Z,2.47
2023-05-22T10:03:32.426Z,3.30
2023-05-22T10:06:01.905Z,3.70
2023-05-22T10:08:30.207Z,3.80
2023-05-22T10:10:58.929Z,3.47
2023-05-22T10:13:28.590Z,4.60
2023-05-22T10:15:57.068Z,3.10
2023-05-22T10:18:27.560Z,3.47
2023-05-22T10:20:56.048Z,4.70
2023-05-22T10:23:24.212Z,3.40
2023-05-22T10:25:53.086Z,2.73
2023-05-22T10:28:28.599Z,3.47
2023-05-22T10:31:03.073Z,2.97
2023-05-22T10:33:39.957Z,3.67
2023-05-22T10:36:11.376Z,2.73
2023-05-22T10:38:54.290Z,4.00
2023-05-22T10:41:23.900Z,3.63
2023-05-22T10:43:52.469Z,3.57
2023-05-22T10:46:20.703Z,3.30
2023-05-22T10:48:52.825Z,2.70
2023-05-22T10:51:22.703Z,2.97
2023-05-22T10:53:54.262Z,4.23
2023-05-22T10:56:25.165Z,2.93
2023-05-22T10:59:04.905Z,2.30
2023-05-22T11:01:36.083Z,3.03
2023-05-22T11:04:12.695Z,2.57
2023-05-22T11:06:42.986Z,3.07
2023-05-22T11:09:30.550Z,3.10
2023-05-22T11:12:26.460Z,3.77
2023-05-22T11:14:56.771Z,2.60
2023-05-22T11:17:26.966Z,2.93
2023-05-22T11:20:05.567Z,2.73
2023-05-22T11:22:35.859Z,3.07
2023-05-22T11:25:09.582Z,3.37
2023-05-22T11:27:39.099Z,3.73
2023-05-22T11:30:09.379Z,2.60
2023-05-22T11:32:37.924Z,3.23
2023-05-22T11:35:08.594Z,2.53
2023-05-22T11:37:40.658Z,2.73
2023-05-22T11:40:09.649Z,2.80
2023-05-22T11:42:38.466Z,3.37
2023-05-22T11:45:07.649Z,4.23
2023-05-22T11:47:35.842Z,3.10
2023-05-22T11:50:03.814Z,4.20
2023-05-22T11:52:33.867Z,4.23
2023-05-22T11:55:02.121Z,4.20
2023-05-22T11:57:31.467Z,3.40
2023-05-22T11:59:59.874Z,3.10
2023-05-22T12:02:27.926Z,4.03
2023-05-22T12:04:56.417Z,4.23
2023-05-22T12:07:25.972Z,4.30
2023-05-22T12:09:57.492Z,4.20
2023-05-22T12:12:26.179Z,4.00
2023-05-22T12:14:54.258Z,3.80
2023-05-22T12:17:23.606Z,3.20
2023-05-22T12:19:51.561Z,3.10
2023-05-22T12:22:23.304Z,3.63
2023-05-22T12:24:55.554Z,3.43
2023-05-22T12:27:23.569Z,3.33
2023-05-22T12:29:52.893Z,3.70
2023-05-22T12:32:23.844Z,3.40
2023-05-22T12:34:52.043Z,3.00
2023-05-22T12:37:21.073Z,3.00
2023-05-22T12:39:57.505Z,2.40
2023-05-22T12:42:25.815Z,3.00
2023-05-22T12:44:55.019Z,3.27
2023-05-22T12:47:23.913Z,3.40
2023-05-22T12:49:52.180Z,3.63
2023-05-22T12:52:20.388Z,2.70
2023-05-22T12:54:48.414Z,2.97
2023-05-22T12:57:17.770Z,3.30
2023-05-22T12:59:45.725Z,2.80
2023-05-22T13:02:13.796Z,3.13
2023-05-22T13:04:41.762Z,2.50
2023-05-22T13:07:09.842Z,2.97
2023-05-22T13:09:37.807Z,2.80
2023-05-22T13:12:06.789Z,3.20
2023-05-22T13:14:38.792Z,2.43
2023-05-22T13:17:07.637Z,2.53
2023-05-22T13:19:35.764Z,2.50
2023-05-22T13:22:03.956Z,2.40
2023-05-22T13:24:31.906Z,2.70
2023-05-22T13:26:59.849Z,2.50
2023-05-22T13:29:27.778Z,2.63
2023-05-22T13:31:57.085Z,2.30
2023-05-22T13:34:25.159Z,2.70
2023-05-22T13:36:53.732Z,2.30
2023-05-22T13:39:21.755Z,3.07
2023-05-22T13:41:49.765Z,2.70
2023-05-22T13:44:17.739Z,2.30
2023-05-22T13:46:45.890Z,2.07
2023-05-22T13:49:15.240Z,2.90
2023-05-22T13:51:43.188Z,2.70
2023-05-22T13:54:11.360Z,2.20
2023-05-22T13:56:39.347Z,2.43
2023-05-22T13:59:09.359Z,2.40
2023-05-22T14:01:37.618Z,3.00
2023-05-22T14:04:06.100Z,2.97
2023-05-22T14:06:35.522Z,2.30
2023-05-22T14:09:06.044Z,2.30
2023-05-22T14:11:34.058Z,2.30
2023-05-22T14:14:01.999Z,2.57
2023-05-22T14:16:30.136Z,2.40
2023-05-22T14:18:58.166Z,2.20
2023-05-22T14:21:26.153Z,2.57
2023-05-22T14:23:55.792Z,2.20
2023-05-22T14:26:24.199Z,2.43
2023-05-22T14:28:53.007Z,1.97
2023-05-22T14:31:21.037Z,3.13
2023-05-22T14:33:49.017Z,2.67
2023-05-22T14:36:17.886Z,3.20
2023-05-22T14:38:46.622Z,2.40
2023-05-22T14:41:16.228Z,2.43
2023-05-22T14:43:44.173Z,2.43
2023-05-22T14:46:12.507Z,1.53
2023-05-22T14:48:40.485Z,2.60
2023-05-22T14:51:08.417Z,2.30
2023-05-22T14:53:36.348Z,1.80
2023-05-22T14:56:04.744Z,1.80
2023-05-22T14:58:34.120Z,1.60
2023-05-22T15:01:02.078Z,1.70
2023-05-22T15:03:31.045Z,2.40
2023-05-22T15:05:59.003Z,2.60
2023-05-22T15:08:27.002Z,2.63
2023-05-22T15:10:54.944Z,2.77
2023-05-22T15:13:22.904Z,1.80
2023-05-22T15:15:52.301Z,1.50
2023-05-22T15:18:20.843Z,1.83
2023-05-22T15:20:48.847Z,1.67
2023-05-22T15:23:16.836Z,2.10
2023-05-22T15:25:44.910Z,1.90
2023-05-22T15:28:12.832Z,2.00
2023-05-22T15:30:43.564Z,2.30
2023-05-22T15:33:12.922Z,2.10
2023-05-22T15:35:42.012Z,2.00
2023-05-22T15:38:12.457Z,1.63
2023-05-22T15:40:41.784Z,2.63
2023-05-22T15:43:09.790Z,2.70
2023-05-22T15:45:38.274Z,2.13
2023-05-22T15:48:07.705Z,2.50
2023-05-22T15:50:37.153Z,2.33
2023-05-22T15:53:05.132Z,2.50
2023-05-22T15:55:33.482Z,2.27
2023-05-22T15:58:02.660Z,2.00
2023-05-22T16:00:30.739Z,2.30
2023-05-22T16:02:58.761Z,1.90
2023-05-22T16:05:26.745Z,3.47
2023-05-22T16:07:56.021Z,3.00
2023-05-22T16:10:23.929Z,2.77
2023-05-22T16:12:51.870Z,2.17
2023-05-22T16:15:19.832Z,2.53
2023-05-22T16:17:47.868Z,2.23
2023-05-22T16:20:15.930Z,2.67
2023-05-22T16:22:48.706Z,2.13
2023-05-22T16:25:18.846Z,2.00
2023-05-22T16:27:46.912Z,1.67
2023-05-22T16:30:16.728Z,2.50
2023-05-22T16:32:46.430Z,2.37
2023-05-22T16:35:14.635Z,2.10
2023-05-22T16:37:42.582Z,2.20
2023-05-22T16:40:11.280Z,1.83
2023-05-22T16:42:40.615Z,2.23
2023-05-22T16:45:09.237Z,1.90
2023-05-22T16:47:37.297Z,2.27
2023-05-22T16:50:06.206Z,2.67
2023-05-22T16:52:34.197Z,2.60
2023-05-22T16:55:02.364Z,2.10
2023-05-22T16:57:30.336Z,2.53
2023-05-22T16:59:59.716Z,2.43
2023-05-22T17:02:27.772Z,1.93
2023-05-22T17:04:55.796Z,2.80
2023-05-22T17:07:23.763Z,2.63
2023-05-22T17:09:51.723Z,2.63
2023-05-22T17:12:19.698Z,2.10
2023-05-22T17:14:47.657Z,2.93
2023-05-22T17:17:17.108Z,2.43
2023-05-22T17:19:45.073Z,2.60
2023-05-22T17:22:13.099Z,3.10
2023-05-22T17:24:41.164Z,2.87
2023-05-22T17:27:09.127Z,2.47
2023-05-22T17:29:37.101Z,3.07
2023-05-22T17:32:06.433Z,2.27
2023-05-22T17:34:36.112Z,2.60
2023-05-22T17:37:04.083Z,3.30
2023-05-22T17:39:32.044Z,3.10
2023-05-22T17:42:00.605Z,2.60
2023-05-22T17:44:29.174Z,2.47
2023-05-22T17:46:57.103Z,2.50
2023-05-22T17:49:25.050Z,3.10
2023-05-22T17:51:54.373Z,2.37
2023-05-22T17:54:22.560Z,2.67
2023-05-22T17:56:50.728Z,3.50
2023-05-22T17:59:18.714Z,2.77
2023-05-22T18:01:47.784Z,2.70
2023-05-22T18:04:15.885Z,2.83
2023-05-22T18:06:43.813Z,1.93
2023-05-22T18:09:13.144Z,2.50
2023-05-22T18:11:41.131Z,2.67
2023-05-22T18:14:09.061Z,2.77
2023-05-22T18:16:37.067Z,3.13
2023-05-22T18:19:05.076Z,2.50
2023-05-22T18:21:33.082Z,3.20
2023-05-22T18:24:01.086Z,2.67
2023-05-22T18:26:30.467Z,2.73
2023-05-22T18:28:58.404Z,2.30
2023-05-22T18:31:26.411Z,3.10
2023-05-22T18:33:54.432Z,2.47
2023-05-22T18:36:22.636Z,3.30
2023-05-22T18:38:50.673Z,2.90
2023-05-22T18:41:18.622Z,2.60
2023-05-22T18:43:47.910Z,2.30
2023-05-22T18:46:15.872Z,2.10
2023-05-22T18:48:43.874Z,2.70
2023-05-22T18:51:11.923Z,2.50
2023-05-22T18:53:39.876Z,2.27
2023-05-22T18:56:07.807Z,2.93
2023-05-22T18:58:37.669Z,2.40
2023-05-22T19:01:07.049Z,2.17
2023-05-22T19:03:35.092Z,2.83
2023-05-22T19:06:03.412Z,2.17
2023-05-22T19:08:33.601Z,2.70
2023-05-22T19:11:03.006Z,2.17
2023-05-22T19:13:30.936Z,2.40
2023-05-22T19:15:59.009Z,2.90
2023-05-22T19:18:28.482Z,2.33
2023-05-22T19:20:56.574Z,2.47
2023-05-22T19:23:24.617Z,2.40
2023-05-22T19:25:52.662Z,3.00
2023-05-22T19:28:20.597Z,3.00
2023-05-22T19:30:48.616Z,2.77
2023-05-22T19:33:17.383Z,2.30
2023-05-22T19:35:46.938Z,2.77
2023-05-22T19:38:15.039Z,2.13
2023-05-22T19:40:42.968Z,2.40
2023-05-22T19:43:11.042Z,1.97
2023-05-22T19:45:38.963Z,2.20
2023-05-22T19:48:07.004Z,1.83
2023-05-22T19:50:35.428Z,2.20
2023-05-22T19:53:05.078Z,2.33
2023-05-22T19:55:33.049Z,1.93
2023-05-22T19:58:00.974Z,2.03
2023-05-22T20:00:31.290Z,2.30
2023-05-22T20:02:59.347Z,1.70
2023-05-22T20:05:27.502Z,1.53
2023-05-22T20:07:55.626Z,2.57
2023-05-22T20:10:25.004Z,1.80
2023-05-22T20:12:54.925Z,2.67
2023-05-22T20:15:24.734Z,2.27
2023-05-22T20:17:54.506Z,1.90
2023-05-22T20:20:23.873Z,2.40
2023-05-22T20:22:52.813Z,1.80
2023-05-22T20:25:21.234Z,2.10
2023-05-22T20:27:50.599Z,3.77
2023-05-22T20:30:18.650Z,2.13
2023-05-22T20:32:46.933Z,2.43
2023-05-22T20:35:18.729Z,2.60
2023-05-22T20:37:47.532Z,2.53
2023-05-22T20:40:17.447Z,2.50
2023-05-22T20:42:47.504Z,2.27
2023-05-22T20:45:17.443Z,2.07
2023-05-22T20:47:45.507Z,2.50
2023-05-22T20:50:15.551Z,2.63
2023-05-22T20:52:45.756Z,1.87
2023-05-22T20:55:13.902Z,2.40
2023-05-22T20:57:41.877Z,2.03
2023-05-22T21:00:13.818Z,2.47
2023-05-22T21:02:43.392Z,1.60
2023-05-22T21:05:11.551Z,2.73
2023-05-22T21:07:39.602Z,3.17
2023-05-22T21:10:08.840Z,1.87
2023-05-22T21:12:36.783Z,2.80
2023-05-22T21:15:05.267Z,1.90
2023-05-22T21:17:33.242Z,2.33
2023-05-22T21:20:02.602Z,1.90
2023-05-22T21:22:30.540Z,2.10
2023-05-22T21:24:58.468Z,2.40
2023-05-22T21:27:26.408Z,1.40
2023-05-22T21:29:54.327Z,2.00
2023-05-22T21:32:22.307Z,1.90
2023-05-22T21:34:50.340Z,2.67
2023-05-22T21:37:19.664Z,2.10
2023-05-22T21:39:47.617Z,2.00
2023-05-22T21:42:16.733Z,1.00
2023-05-22T21:44:44.728Z,1.70
2023-05-22T21:47:13.001Z,1.40
2023-05-22T21:49:41.302Z,1.93
2023-05-22T21:52:09.522Z,2.40
2023-05-22T21:54:38.984Z,2.00
2023-05-22T21:57:07.335Z,2.57
2023-05-22T21:59:35.361Z,2.20
2023-05-22T22:02:03.427Z,2.27
2023-05-22T22:04:31.398Z,2.13
2023-05-22T22:06:59.333Z,1.60
2023-05-22T22:09:27.286Z,2.33
2023-05-22T22:11:56.665Z,1.77
2023-05-22T22:14:24.858Z,2.53
2023-05-22T22:16:54.558Z,2.60
2023-05-22T22:19:23.378Z,1.93
2023-05-22T22:21:51.611Z,2.13
2023-05-22T22:24:19.613Z,1.90
2023-05-22T22:26:49.185Z,2.07
2023-05-22T22:29:18.499Z,1.80
2023-05-22T22:31:46.869Z,1.70
2023-05-22T22:34:15.061Z,2.13
2023-05-22T22:36:43.224Z,2.33
2023-05-22T22:39:11.377Z,1.97
2023-05-22T22:41:39.378Z,3.40
2023-05-22T22:44:07.358Z,2.83
2023-05-22T22:46:36.797Z,2.73
2023-05-22T22:49:04.902Z,2.53
2023-05-22T22:51:32.860Z,2.10
2023-05-22T22:54:00.841Z,1.63
2023-05-22T22:56:29.458Z,2.60
2023-05-22T22:58:57.717Z,1.40
2023-05-22T23:01:25.865Z,2.00
2023-05-22T23:03:55.310Z,3.03
2023-05-22T23:06:23.879Z,2.00
2023-05-22T23:08:51.913Z,2.23
2023-05-22T23:11:19.926Z,1.97
2023-05-22T23:13:47.891Z,2.70
2023-05-22T23:16:16.301Z,1.73
2023-05-22T23:18:44.344Z,1.60
2023-05-22T23:21:13.662Z,1.97
2023-05-22T23:23:41.596Z,2.93
2023-05-22T23:26:09.542Z,2.23
2023-05-22T23:28:37.509Z,1.40
2023-05-22T23:31:06.134Z,3.00
2023-05-22T23:33:34.115Z,2.20
2023-05-22T23:36:02.087Z,2.67
2023-05-22T23:38:31.389Z,3.13
2023-05-22T23:40:59.449Z,2.67
2023-05-22T23:43:27.376Z,2.20
2023-05-22T23:45:55.424Z,2.03
2023-05-22T23:48:23.365Z,2.00
2023-05-22T23:50:51.321Z,1.80
2023-05-22T23:53:19.247Z,1.70
2023-05-22T23:55:48.628Z,2.00
2023-05-22T23:58:16.852Z,2.70
